Evansport, Ohio
Current Conditions -  °F | °C
As of 10:53 PM on Sunday 23 Nov 2014 (Local Time) from KDFI Reporting Station
Moderate Rain Moderate Rain  
Wind Chill: 53°   Ceiling: 1000
Heat Index: 53°   Visibility: 5mi
Dew Point: 51°   Wind: 16mph
Humidity: 93%   Direction: 160°SSE
Pressure: 29.23"   Gusts: 24mph
Location:  41.42°N, 84.39°W
Report Text: KDFI 240353Z AUTO 16014G21KT 5SM RA BR OVC010 12/11 A2923 RMK AO2 CIG 007V013 SLP899 P0013 T01170106
Loading
Personal Weather Stations






























Interactive Weather Map New forecast layout! Learn more

10-Day Weather Forecast

Advertisements
Track Severe Weather on mobile